Bismarck Sea — WDE5016 — position and weather

sailwx.info

Track history (hours):
 
Tides and Currents Weather Stations Pressure Air Temp Water Temp Dewpoint Dewpoint Depression Visibility Wind Speed Wind Dir Waves Ship Positions

Bismarck Sea

Owner: Kirby Offshore Marine, LLC, Staten Island, NY. More information available from US FCC via Universal Licensing System and Coast Guard Vessel Documentation Center.

Last reported at 2017-Sep-20 08:26 UTC. Time now 2017-Sep-26 21:53 UTC.
Position N 32°22' W 117°25'.

Length 156 m; draft 6 m.

Type: . MMSI: 367360890.

Date/timePositionNaut miles runAvg speedWind from/ knotsBaromVisibWave heightAir tempDewpointWater temp
2017-Sep-20 08:26N 32°22' W 117°25'4 9.2
2017-Sep-20 08:00N 32°26' W 117°26'5 9.4
2017-Sep-20 07:30N 32°30' W 117°27'5 9.6
2017-Sep-20 07:00N 32°35' W 117°28'5 9.2
2017-Sep-20 06:30N 32°39' W 117°30'5 9.2
2017-Sep-20 06:00N 32°43' W 117°33'4 9.0
2017-Sep-20 05:30N 32°47' W 117°36'4 8.8
2017-Sep-20 05:00N 32°51' W 117°39'5 9.1
2017-Sep-20 04:30N 32°55' W 117°42'5 9.1
2017-Sep-20 04:00N 32°58' W 117°45'4 8.9
2017-Sep-20 03:30N 33°01' W 117°49'5 9.3
2017-Sep-20 03:00N 33°05' W 117°52'5 9.5
2017-Sep-20 02:27N 33°09' W 117°56'4 9.5
2017-Sep-20 02:00N 33°12' W 117°59'5 9.5
2017-Sep-20 01:28N 33°16' W 118°03'6 9.4
2017-Sep-20 00:50N 33°21' W 118°08'20 8.8
2017-Sep-19 22:37N 33°40' W 118°12'1 9.1
2017-Sep-19 22:27N 33°42' W 118°11'3 6.1
2017-Sep-19 22:00N 33°44' W 118°13'1 1.0
2017-Sep-19 21:28N 33°44' W 118°14'0 0.0
2017-Sep-19 19:58N 33°44' W 118°14'0 0.0
2017-Sep-19 06:48N 33°44' W 118°14'0 0.1
2017-Sep-19 06:30N 33°44' W 118°14'0 0.0
2017-Sep-19 05:27N 33°44' W 118°14'0 0.0
2017-Sep-18 13:45N 33°44' W 118°14'0 0.0
2017-Sep-18 13:18N 33°44' W 118°14'0 0.0
2017-Sep-18 12:48N 33°44' W 118°14'0 0.0
2017-Sep-18 11:30N 33°44' W 118°14'0 0.0
2017-Sep-18 03:26N 33°44' W 118°14'0 0.0
2017-Sep-17 03:08N 33°44' W 118°14'0 0.0
2017-Sep-17 02:56N 33°44' W 118°14'0 0.0
2017-Sep-16 23:32N 33°44' W 118°14'0 0.3
2017-Sep-16 23:20N 33°44' W 118°14'0 0.0
2017-Sep-16 00:25N 33°44' W 118°14'0 0.0
2017-Sep-15 08:48N 33°44' W 118°14'0 0.0
2017-Sep-15 08:24N 33°44' W 118°14'0 0.0
2017-Sep-15 07:54N 33°44' W 118°14'0 0.0
2017-Sep-15 07:24N 33°44' W 118°14'0 0.0
2017-Sep-15 05:36N 33°44' W 118°14'0 0.0
2017-Sep-15 00:12N 33°44' W 118°14'0 0.2
2017-Sep-14 23:54N 33°44' W 118°14'0 0.0
2017-Sep-14 23:18N 33°44' W 118°14'0 0.1
2017-Sep-14 22:12N 33°44' W 118°14'0 0.0
2017-Sep-14 18:31N 33°44' W 118°14'0 0.0
2017-Sep-14 18:13N 33°44' W 118°14'0 0.1
2017-Sep-14 16:01N 33°44' W 118°14'0 0.0
2017-Sep-14 15:43N 33°44' W 118°14'0 0.0
2017-Sep-14 10:31N 33°44' W 118°14'0 0.0
2017-Sep-14 05:13N 33°44' W 118°14'0 0.1
2017-Sep-14 04:49N 33°44' W 118°14'0 0.0
2017-Sep-14 04:01N 33°44' W 118°14'0 0.0
2017-Sep-14 02:13N 33°44' W 118°14'0 0.2
2017-Sep-14 01:55N 33°44' W 118°14'0 0.0
2017-Sep-14 00:49N 33°44' W 118°14'0 0.1
2017-Sep-14 00:28N 33°44' W 118°14'0 0.0
2017-Sep-13 23:49N 33°44' W 118°14'0 0.0
2017-Sep-13 23:31N 33°44' W 118°14'0 0.0
2017-Sep-13 22:06N 33°44' W 118°14'0 0.4
2017-Sep-13 21:54N 33°44' W 118°14'0 0.2
2017-Sep-13 21:30N 33°44' W 118°14'0 0.1
2017-Sep-13 20:39N 33°44' W 118°14'0 0.1
2017-Sep-13 20:30N 33°44' W 118°14'0 0.1
2017-Sep-13 19:36N 33°44' W 118°14'0 0.2
2017-Sep-13 19:30N 33°44' W 118°14'0 0.1
2017-Sep-13 18:42N 33°44' W 118°14'0 0.0
2017-Sep-13 15:15N 33°44' W 118°14'0 0.2
2017-Sep-13 15:00N 33°44' W 118°14'0 0.0
2017-Sep-13 13:18N 33°44' W 118°14'0 0.0
2017-Sep-13 12:54N 33°44' W 118°14'0 0.0
2017-Sep-13 11:18N 33°44' W 118°14'0 0.1
2017-Sep-13 10:48N 33°44' W 118°14'0 0.0
2017-Sep-13 10:18N 33°44' W 118°14'0 0.0
2017-Sep-13 09:48N 33°44' W 118°14'0 0.0
2017-Sep-13 09:30N 33°44' W 118°14'0 0.0
2017-Sep-13 09:00N 33°44' W 118°14'0 0.0
2017-Sep-13 08:18N 33°44' W 118°14'0 0.1
2017-Sep-13 07:42N 33°44' W 118°14'0 0.0
2017-Sep-13 07:18N 33°44' W 118°14'0 0.0
2017-Sep-13 06:48N 33°44' W 118°14'0 0.2
2017-Sep-13 06:30N 33°44' W 118°14'0 0.0
2017-Sep-13 05:27N 33°44' W 118°14'0 0.0
2017-Sep-13 04:54N 33°44' W 118°14'0 0.0
2017-Sep-13 04:30N 33°44' W 118°14'0 0.0
2017-Sep-13 03:39N 33°44' W 118°14'0 0.0
2017-Sep-13 03:21N 33°44' W 118°14'0 0.0
2017-Sep-13 03:00N 33°44' W 118°14'0 0.0
2017-Sep-13 02:30N 33°44' W 118°14'0 0.0
2017-Sep-13 02:00N 33°44' W 118°14'0 0.0
2017-Sep-13 01:30N 33°44' W 118°14'0 0.0
2017-Sep-13 01:00N 33°44' W 118°14'0 0.0
2017-Sep-13 00:30N 33°44' W 118°14'0 0.1
2017-Sep-12 23:57N 33°44' W 118°14'0 0.0
2017-Sep-12 23:30N 33°44' W 118°14'0 0.0
2017-Sep-12 23:00N 33°44' W 118°14'0 0.0
2017-Sep-12 22:30N 33°44' W 118°14'0 0.0
2017-Sep-12 22:00N 33°44' W 118°14'0 0.0
2017-Sep-12 21:30N 33°44' W 118°14'0 0.0
2017-Sep-12 21:00N 33°44' W 118°14'0 0.0
2017-Sep-12 20:30N 33°44' W 118°14'0 0.0
2017-Sep-12 19:42N 33°44' W 118°14'0 0.1
2017-Sep-12 19:30N 33°44' W 118°14'0 0.0
2017-Sep-12 19:00N 33°44' W 118°14'0 0.0
2017-Sep-12 18:24N 33°44' W 118°14'0 0.0
2017-Sep-12 18:00N 33°44' W 118°14'0 0.1
2017-Sep-12 17:30N 33°44' W 118°14'0 0.0
2017-Sep-12 17:00N 33°44' W 118°14'0 0.0
2017-Sep-12 16:30N 33°44' W 118°14'0 0.1
2017-Sep-12 15:54N 33°44' W 118°14'0 0.0
2017-Sep-12 14:18N 33°44' W 118°14'0 0.1
2017-Sep-12 13:18N 33°44' W 118°14'0 0.0
2017-Sep-12 13:00N 33°44' W 118°14'0 0.0
2017-Sep-12 12:21N 33°44' W 118°14'0 0.0
2017-Sep-12 11:47N 33°44' W 118°14'0 0.0
2017-Sep-12 11:14N 33°44' W 118°14'0 0.0
2017-Sep-12 10:59N 33°44' W 118°14'0 0.0
2017-Sep-12 10:23N 33°44' W 118°14'0 0.0
2017-Sep-12 09:59N 33°44' W 118°14'0 0.0
2017-Sep-12 09:26N 33°44' W 118°14'0 0.0
2017-Sep-12 08:50N 33°44' W 118°14'0 0.0
2017-Sep-12 08:29N 33°44' W 118°14'0 0.0
2017-Sep-12 07:59N 33°44' W 118°14'0 0.0
2017-Sep-12 07:29N 33°44' W 118°14'0 0.1
2017-Sep-12 06:59N 33°44' W 118°14'0 0.1
2017-Sep-12 06:29N 33°44' W 118°14'0 0.1
2017-Sep-12 05:56N 33°44' W 118°14'0 0.1
2017-Sep-12 05:29N 33°44' W 118°14'0 0.0
2017-Sep-12 04:56N 33°44' W 118°14'0 0.0
2017-Sep-12 04:26N 33°44' W 118°14'0 0.0
2017-Sep-12 03:59N 33°44' W 118°14'0 0.0
2017-Sep-12 03:26N 33°44' W 118°14'0 0.1
2017-Sep-12 02:59N 33°44' W 118°14'0 0.0
2017-Sep-12 02:29N 33°44' W 118°14'0 0.0
2017-Sep-12 01:59N 33°44' W 118°14'0 0.0
2017-Sep-12 01:23N 33°44' W 118°14'0 0.0
2017-Sep-12 00:59N 33°44' W 118°14'0 0.0
2017-Sep-12 00:29N 33°44' W 118°14'0 0.0
2017-Sep-11 23:59N 33°44' W 118°14'0 0.1
2017-Sep-11 23:29N 33°44' W 118°14'0 0.1
2017-Sep-11 22:59N 33°44' W 118°14'0 0.0
2017-Sep-11 22:29N 33°44' W 118°14'0 0.1
2017-Sep-11 21:59N 33°44' W 118°14'0 0.1
2017-Sep-11 21:29N 33°44' W 118°14'0 0.1
2017-Sep-11 20:56N 33°44' W 118°14'0 0.1
2017-Sep-11 20:29N 33°44' W 118°14'0 0.0
2017-Sep-11 19:59N 33°44' W 118°14'0 0.0
2017-Sep-11 19:29N 33°44' W 118°14'0 0.1
2017-Sep-11 18:59N 33°44' W 118°14'0 0.0
2017-Sep-11 18:29N 33°44' W 118°14'0 0.0
2017-Sep-11 17:59N 33°44' W 118°14'0 0.1
2017-Sep-11 17:17N 33°44' W 118°14'0 0.0
2017-Sep-11 16:53N 33°44' W 118°14'0 0.0
2017-Sep-11 16:11N 33°44' W 118°14'0 0.0
2017-Sep-11 15:53N 33°44' W 118°14'0 0.0
2017-Sep-11 12:38N 33°44' W 118°14'0 0.0
2017-Sep-11 12:29N 33°44' W 118°14'0 0.0
2017-Sep-11 11:56N 33°44' W 118°14'0 0.1
2017-Sep-11 11:29N 33°44' W 118°14'0 0.0
2017-Sep-11 09:53N 33°44' W 118°14'0 0.1
2017-Sep-11 09:26N 33°44' W 118°14'0 0.0
2017-Sep-11 08:53N 33°44' W 118°14'0 0.0
2017-Sep-11 08:29N 33°44' W 118°14'0 0.2
2017-Sep-11 07:59N 33°44' W 118°14'0 0.1
2017-Sep-11 05:56N 33°44' W 118°14'0 0.3
2017-Sep-11 05:26N 33°44' W 118°14'0 0.1
2017-Sep-11 04:59N 33°44' W 118°14'0 0.0
2017-Sep-11 04:29N 33°44' W 118°14'0 0.1
2017-Sep-11 03:59N 33°44' W 118°14'0 0.0
2017-Sep-11 03:29N 33°44' W 118°14'0 0.1
2017-Sep-11 02:59N 33°44' W 118°14'0 0.1
2017-Sep-11 02:28N 33°44' W 118°14'0 0.0
2017-Sep-11 01:55N 33°44' W 118°14'0 0.0
2017-Sep-11 01:28N 33°44' W 118°14'0 0.0
2017-Sep-11 00:46N 33°44' W 118°14'0 0.0
2017-Sep-11 00:28N 33°44' W 118°14'0 0.1
2017-Sep-10 23:58N 33°44' W 118°14'0 0.1
2017-Sep-10 23:28N 33°44' W 118°14'0 0.0
2017-Sep-10 22:58N 33°44' W 118°14'0 0.0
2017-Sep-10 22:28N 33°44' W 118°14'0 0.0
2017-Sep-10 21:58N 33°44' W 118°14'0 0.0
2017-Sep-10 21:28N 33°44' W 118°14'0 0.0
2017-Sep-10 20:58N 33°44' W 118°14'0 0.0
2017-Sep-10 20:25N 33°44' W 118°14'0 0.0
2017-Sep-10 19:58N 33°44' W 118°14'0 0.0
2017-Sep-10 19:25N 33°44' W 118°14'0 0.0
2017-Sep-10 18:49N 33°44' W 118°14'0 0.0
2017-Sep-10 18:28N 33°44' W 118°14'0 0.1
2017-Sep-10 17:43N 33°44' W 118°14'0 0.0
2017-Sep-10 17:28N 33°44' W 118°14'0 0.0
2017-Sep-10 16:58N 33°44' W 118°14'0 0.1
2017-Sep-10 16:28N 33°44' W 118°14'0 0.0
2017-Sep-10 15:58N 33°44' W 118°14'0 0.0
2017-Sep-10 15:25N 33°44' W 118°14'0 0.0
2017-Sep-10 14:43N 33°44' W 118°14'0 0.0
2017-Sep-10 13:55N 33°44' W 118°14'0 0.0
2017-Sep-10 13:28N 33°44' W 118°14'0 0.0
2017-Sep-10 12:58N 33°44' W 118°14'0 0.0
2017-Sep-10 12:25N 33°44' W 118°14'0 0.1
2017-Sep-10 11:55N 33°44' W 118°14'0 0.1
2017-Sep-10 11:28N 33°44' W 118°14'0 0.1
2017-Sep-10 11:00N 33°44' W 118°14'1 2.0
2017-Sep-10 10:30N 33°44' W 118°13'4 7.3
2017-Sep-10 10:00N 33°41' W 118°11'4 7.3
2017-Sep-10 09:26N 33°37' W 118°10'3 6.7
2017-Sep-10 09:00N 33°34' W 118°09'  
Track history (hours):
 
Tides and Currents Weather Stations Pressure Air Temp Water Temp Dewpoint Dewpoint Depression Visibility Wind Speed Wind Dir Waves Ship Positions

Bismarck Sea

Owner: Kirby Offshore Marine, LLC, Staten Island, NY. More information available from US FCC via Universal Licensing System and Coast Guard Vessel Documentation Center.

Last reported at 2017-Sep-20 08:26 UTC. Time now 2017-Sep-26 21:53 UTC.
Position N 32°22' W 117°25'.

Length 156 m; draft 6 m.

Type: . MMSI: 367360890.

Date/timePositionNaut miles runAvg speedWind from/ knotsBaromVisibWave heightAir tempDewpointWater temp
2017-Sep-20 08:26N 32°22' W 117°25'4 9.2
2017-Sep-20 08:00N 32°26' W 117°26'5 9.4
2017-Sep-20 07:30N 32°30' W 117°27'5 9.6
2017-Sep-20 07:00N 32°35' W 117°28'5 9.2
2017-Sep-20 06:30N 32°39' W 117°30'5 9.2
2017-Sep-20 06:00N 32°43' W 117°33'4 9.0
2017-Sep-20 05:30N 32°47' W 117°36'4 8.8
2017-Sep-20 05:00N 32°51' W 117°39'5 9.1
2017-Sep-20 04:30N 32°55' W 117°42'5 9.1
2017-Sep-20 04:00N 32°58' W 117°45'4 8.9
2017-Sep-20 03:30N 33°01' W 117°49'5 9.3
2017-Sep-20 03:00N 33°05' W 117°52'5 9.5
2017-Sep-20 02:27N 33°09' W 117°56'4 9.5
2017-Sep-20 02:00N 33°12' W 117°59'5 9.5
2017-Sep-20 01:28N 33°16' W 118°03'6 9.4
2017-Sep-20 00:50N 33°21' W 118°08'20 8.8
2017-Sep-19 22:37N 33°40' W 118°12'1 9.1
2017-Sep-19 22:27N 33°42' W 118°11'3 6.1
2017-Sep-19 22:00N 33°44' W 118°13'1 1.0
2017-Sep-19 21:28N 33°44' W 118°14'0 0.0
2017-Sep-19 19:58N 33°44' W 118°14'0 0.0
2017-Sep-19 06:48N 33°44' W 118°14'0 0.1
2017-Sep-19 06:30N 33°44' W 118°14'0 0.0
2017-Sep-19 05:27N 33°44' W 118°14'0 0.0
2017-Sep-18 13:45N 33°44' W 118°14'0 0.0
2017-Sep-18 13:18N 33°44' W 118°14'0 0.0
2017-Sep-18 12:48N 33°44' W 118°14'0 0.0
2017-Sep-18 11:30N 33°44' W 118°14'0 0.0
2017-Sep-18 03:26N 33°44' W 118°14'0 0.0
2017-Sep-17 03:08N 33°44' W 118°14'0 0.0
2017-Sep-17 02:56N 33°44' W 118°14'0 0.0
2017-Sep-16 23:32N 33°44' W 118°14'0 0.3
2017-Sep-16 23:20N 33°44' W 118°14'0 0.0
2017-Sep-16 00:25N 33°44' W 118°14'0 0.0
2017-Sep-15 08:48N 33°44' W 118°14'0 0.0
2017-Sep-15 08:24N 33°44' W 118°14'0 0.0
2017-Sep-15 07:54N 33°44' W 118°14'0 0.0
2017-Sep-15 07:24N 33°44' W 118°14'0 0.0
2017-Sep-15 05:36N 33°44' W 118°14'0 0.0
2017-Sep-15 00:12N 33°44' W 118°14'0 0.2
2017-Sep-14 23:54N 33°44' W 118°14'0 0.0
2017-Sep-14 23:18N 33°44' W 118°14'0 0.1
2017-Sep-14 22:12N 33°44' W 118°14'0 0.0
2017-Sep-14 18:31N 33°44' W 118°14'0 0.0
2017-Sep-14 18:13N 33°44' W 118°14'0 0.1
2017-Sep-14 16:01N 33°44' W 118°14'0 0.0
2017-Sep-14 15:43N 33°44' W 118°14'0 0.0
2017-Sep-14 10:31N 33°44' W 118°14'0 0.0
2017-Sep-14 05:13N 33°44' W 118°14'0 0.1
2017-Sep-14 04:49N 33°44' W 118°14'0 0.0
2017-Sep-14 04:01N 33°44' W 118°14'0 0.0
2017-Sep-14 02:13N 33°44' W 118°14'0 0.2
2017-Sep-14 01:55N 33°44' W 118°14'0 0.0
2017-Sep-14 00:49N 33°44' W 118°14'0 0.1
2017-Sep-14 00:28N 33°44' W 118°14'0 0.0
2017-Sep-13 23:49N 33°44' W 118°14'0 0.0
2017-Sep-13 23:31N 33°44' W 118°14'0 0.0
2017-Sep-13 22:06N 33°44' W 118°14'0 0.4
2017-Sep-13 21:54N 33°44' W 118°14'0 0.2
2017-Sep-13 21:30N 33°44' W 118°14'0 0.1
2017-Sep-13 20:39N 33°44' W 118°14'0 0.1
2017-Sep-13 20:30N 33°44' W 118°14'0 0.1
2017-Sep-13 19:36N 33°44' W 118°14'0 0.2
2017-Sep-13 19:30N 33°44' W 118°14'0 0.1
2017-Sep-13 18:42N 33°44' W 118°14'0 0.0
2017-Sep-13 15:15N 33°44' W 118°14'0 0.2
2017-Sep-13 15:00N 33°44' W 118°14'0 0.0
2017-Sep-13 13:18N 33°44' W 118°14'0 0.0
2017-Sep-13 12:54N 33°44' W 118°14'0 0.0
2017-Sep-13 11:18N 33°44' W 118°14'0 0.1
2017-Sep-13 10:48N 33°44' W 118°14'0 0.0
2017-Sep-13 10:18N 33°44' W 118°14'0 0.0
2017-Sep-13 09:48N 33°44' W 118°14'0 0.0
2017-Sep-13 09:30N 33°44' W 118°14'0 0.0
2017-Sep-13 09:00N 33°44' W 118°14'0 0.0
2017-Sep-13 08:18N 33°44' W 118°14'0 0.1
2017-Sep-13 07:42N 33°44' W 118°14'0 0.0
2017-Sep-13 07:18N 33°44' W 118°14'0 0.0
2017-Sep-13 06:48N 33°44' W 118°14'0 0.2
2017-Sep-13 06:30N 33°44' W 118°14'0 0.0
2017-Sep-13 05:27N 33°44' W 118°14'0 0.0
2017-Sep-13 04:54N 33°44' W 118°14'0 0.0
2017-Sep-13 04:30N 33°44' W 118°14'0 0.0
2017-Sep-13 03:39N 33°44' W 118°14'0 0.0
2017-Sep-13 03:21N 33°44' W 118°14'0 0.0
2017-Sep-13 03:00N 33°44' W 118°14'0 0.0
2017-Sep-13 02:30N 33°44' W 118°14'0 0.0
2017-Sep-13 02:00N 33°44' W 118°14'0 0.0
2017-Sep-13 01:30N 33°44' W 118°14'0 0.0
2017-Sep-13 01:00N 33°44' W 118°14'0 0.0
2017-Sep-13 00:30N 33°44' W 118°14'0 0.1
2017-Sep-12 23:57N 33°44' W 118°14'0 0.0
2017-Sep-12 23:30N 33°44' W 118°14'0 0.0
2017-Sep-12 23:00N 33°44' W 118°14'0 0.0
2017-Sep-12 22:30N 33°44' W 118°14'0 0.0
2017-Sep-12 22:00N 33°44' W 118°14'0 0.0
2017-Sep-12 21:30N 33°44' W 118°14'0 0.0
2017-Sep-12 21:00N 33°44' W 118°14'0 0.0
2017-Sep-12 20:30N 33°44' W 118°14'0 0.0
2017-Sep-12 19:42N 33°44' W 118°14'0 0.1
2017-Sep-12 19:30N 33°44' W 118°14'0 0.0
2017-Sep-12 19:00N 33°44' W 118°14'0 0.0
2017-Sep-12 18:24N 33°44' W 118°14'0 0.0
2017-Sep-12 18:00N 33°44' W 118°14'0 0.1
2017-Sep-12 17:30N 33°44' W 118°14'0 0.0
2017-Sep-12 17:00N 33°44' W 118°14'0 0.0
2017-Sep-12 16:30N 33°44' W 118°14'0 0.1
2017-Sep-12 15:54N 33°44' W 118°14'0 0.0
2017-Sep-12 14:18N 33°44' W 118°14'0 0.1
2017-Sep-12 13:18N 33°44' W 118°14'0 0.0
2017-Sep-12 13:00N 33°44' W 118°14'0 0.0
2017-Sep-12 12:21N 33°44' W 118°14'0 0.0
2017-Sep-12 11:47N 33°44' W 118°14'0 0.0
2017-Sep-12 11:14N 33°44' W 118°14'0 0.0
2017-Sep-12 10:59N 33°44' W 118°14'0 0.0
2017-Sep-12 10:23N 33°44' W 118°14'0 0.0
2017-Sep-12 09:59N 33°44' W 118°14'0 0.0
2017-Sep-12 09:26N 33°44' W 118°14'0 0.0
2017-Sep-12 08:50N 33°44' W 118°14'0 0.0
2017-Sep-12 08:29N 33°44' W 118°14'0 0.0
2017-Sep-12 07:59N 33°44' W 118°14'0 0.0
2017-Sep-12 07:29N 33°44' W 118°14'0 0.1
2017-Sep-12 06:59N 33°44' W 118°14'0 0.1
2017-Sep-12 06:29N 33°44' W 118°14'0 0.1
2017-Sep-12 05:56N 33°44' W 118°14'0 0.1
2017-Sep-12 05:29N 33°44' W 118°14'0 0.0
2017-Sep-12 04:56N 33°44' W 118°14'0 0.0
2017-Sep-12 04:26N 33°44' W 118°14'0 0.0
2017-Sep-12 03:59N 33°44' W 118°14'0 0.0
2017-Sep-12 03:26N 33°44' W 118°14'0 0.1
2017-Sep-12 02:59N 33°44' W 118°14'0 0.0
2017-Sep-12 02:29N 33°44' W 118°14'0 0.0
2017-Sep-12 01:59N 33°44' W 118°14'0 0.0
2017-Sep-12 01:23N 33°44' W 118°14'0 0.0
2017-Sep-12 00:59N 33°44' W 118°14'0 0.0
2017-Sep-12 00:29N 33°44' W 118°14'0 0.0
2017-Sep-11 23:59N 33°44' W 118°14'0 0.1
2017-Sep-11 23:29N 33°44' W 118°14'0 0.1
2017-Sep-11 22:59N 33°44' W 118°14'0 0.0
2017-Sep-11 22:29N 33°44' W 118°14'0 0.1
2017-Sep-11 21:59N 33°44' W 118°14'0 0.1
2017-Sep-11 21:29N 33°44' W 118°14'0 0.1
2017-Sep-11 20:56N 33°44' W 118°14'0 0.1
2017-Sep-11 20:29N 33°44' W 118°14'0 0.0
2017-Sep-11 19:59N 33°44' W 118°14'0 0.0
2017-Sep-11 19:29N 33°44' W 118°14'0 0.1
2017-Sep-11 18:59N 33°44' W 118°14'0 0.0
2017-Sep-11 18:29N 33°44' W 118°14'0 0.0
2017-Sep-11 17:59N 33°44' W 118°14'0 0.1
2017-Sep-11 17:17N 33°44' W 118°14'0 0.0
2017-Sep-11 16:53N 33°44' W 118°14'0 0.0
2017-Sep-11 16:11N 33°44' W 118°14'0 0.0
2017-Sep-11 15:53N 33°44' W 118°14'0 0.0
2017-Sep-11 12:38N 33°44' W 118°14'0 0.0
2017-Sep-11 12:29N 33°44' W 118°14'0 0.0
2017-Sep-11 11:56N 33°44' W 118°14'0 0.1
2017-Sep-11 11:29N 33°44' W 118°14'0 0.0
2017-Sep-11 09:53N 33°44' W 118°14'0 0.1
2017-Sep-11 09:26N 33°44' W 118°14'0 0.0
2017-Sep-11 08:53N 33°44' W 118°14'0 0.0
2017-Sep-11 08:29N 33°44' W 118°14'0 0.2
2017-Sep-11 07:59N 33°44' W 118°14'0 0.1
2017-Sep-11 05:56N 33°44' W 118°14'0 0.3
2017-Sep-11 05:26N 33°44' W 118°14'0 0.1
2017-Sep-11 04:59N 33°44' W 118°14'0 0.0
2017-Sep-11 04:29N 33°44' W 118°14'0 0.1
2017-Sep-11 03:59N 33°44' W 118°14'0 0.0
2017-Sep-11 03:29N 33°44' W 118°14'0 0.1
2017-Sep-11 02:59N 33°44' W 118°14'0 0.1
2017-Sep-11 02:28N 33°44' W 118°14'0 0.0
2017-Sep-11 01:55N 33°44' W 118°14'0 0.0
2017-Sep-11 01:28N 33°44' W 118°14'0 0.0
2017-Sep-11 00:46N 33°44' W 118°14'0 0.0
2017-Sep-11 00:28N 33°44' W 118°14'0 0.1
2017-Sep-10 23:58N 33°44' W 118°14'0 0.1
2017-Sep-10 23:28N 33°44' W 118°14'0 0.0
2017-Sep-10 22:58N 33°44' W 118°14'0 0.0
2017-Sep-10 22:28N 33°44' W 118°14'0 0.0
2017-Sep-10 21:58N 33°44' W 118°14'0 0.0
2017-Sep-10 21:28N 33°44' W 118°14'0 0.0
2017-Sep-10 20:58N 33°44' W 118°14'0 0.0
2017-Sep-10 20:25N 33°44' W 118°14'0 0.0
2017-Sep-10 19:58N 33°44' W 118°14'0 0.0
2017-Sep-10 19:25N 33°44' W 118°14'0 0.0
2017-Sep-10 18:49N 33°44' W 118°14'0 0.0
2017-Sep-10 18:28N 33°44' W 118°14'0 0.1
2017-Sep-10 17:43N 33°44' W 118°14'0 0.0
2017-Sep-10 17:28N 33°44' W 118°14'0 0.0
2017-Sep-10 16:58N 33°44' W 118°14'0 0.1
2017-Sep-10 16:28N 33°44' W 118°14'0 0.0
2017-Sep-10 15:58N 33°44' W 118°14'0 0.0
2017-Sep-10 15:25N 33°44' W 118°14'0 0.0
2017-Sep-10 14:43N 33°44' W 118°14'0 0.0
2017-Sep-10 13:55N 33°44' W 118°14'0 0.0
2017-Sep-10 13:28N 33°44' W 118°14'0 0.0
2017-Sep-10 12:58N 33°44' W 118°14'0 0.0
2017-Sep-10 12:25N 33°44' W 118°14'0 0.1
2017-Sep-10 11:55N 33°44' W 118°14'0 0.1
2017-Sep-10 11:28N 33°44' W 118°14'0 0.1
2017-Sep-10 11:00N 33°44' W 118°14'1 2.0
2017-Sep-10 10:30N 33°44' W 118°13'4 7.3
2017-Sep-10 10:00N 33°41' W 118°11'4 7.3
2017-Sep-10 09:26N 33°37' W 118°10'3 6.7
2017-Sep-10 09:00N 33°34' W 118°09'  

Dump ship's entire track history